KDDH Airport (William H Morse State) Information

FAA: DDH - ICAO: KDDH

KDDH Airport Location

State Vermont
County Bennington
City Bennington
KDDH Airport is 3 miles west of Bennington, VT.
Latitude 42-53-28.3000N
Longitude 073-14-45.9000W
Elevation 826ft

KDDH Airport METARs

METAR KDDH 200254Z AUTO 25005KT 10SM OVC070 13/03 A2985 RMK AO2 SLP110 T01280033 58001
Altimeter 29.85"
Temperature 12.8°C (55.0°F)
Wind 250° at 5KT
Clouds overcast at 7,000ft
Visibility 10.0mi
Time observed: 2021-10-20T02:54:00Z

KDDH Airport Details

Status Operational
Activation December 1937
Ownership Public
Usage Public
Chart NEW YORK
ATC on-site No
Beacon schedule sunset-sunrise
Beacon color clear green

KDDH Airport Contacts

Owner STATE OF VERMONT
Owner address RUTLAND SVR AIRPORT, 1002 AIRPORT ROAD, NO. CLARENDON, VT 05759-5001
Owner phone (802) 786-8881
Manager CRIS CHILD
Manager address 2050 NORTH 300 WEST, SPANISH FORK, UT 84660
Manager phone 801-420-8888

KDDH Airport (William H Morse State) Radio Frequencies

KDDH (Airport) Radio Frequencies

UNICOM 122.8
Common traffic advisory frequency (CTAF) 122.8